Carpenter Bottom, North Carolina
Current Conditions -  °F | °C
As of 7:55 AM on Tuesday 21 Oct 2014 (Local Time) from KTNB Reporting Station
Broken Clouds Broken Clouds  
Wind Chill:   Ceiling: 1100
Heat Index:   Visibility: 10mi
Dew Point:   Wind: 3mph
Humidity: 92%   Direction: 310°NW
Pressure: 29.98"   Gusts: NA
Location:  36.0825°N, 81.9964°W
Report Text: KTNB 211155Z AUTO 31003KT 10SM BKN011 10/08 A2998 RMK AO2 T00950083 10100 20070
Loading
Personal Weather Stations






























Interactive Weather Map
Tropical Storm Tracking
New forecast layout! Learn more

10-Day Weather Forecast

Advertisements
Track Severe Weather on mobile